Ely Municipal Airport
KELO : now visible

Airfield :











YOU CAN JOIN US ON...

 
LOGIN :

Register | Disclaimer

   EN    FR    IT 

 









Legend :    VFR   Marginal VFR   IFR   Intensive IFR   Very Intensive IFR
Visi :
Ceiling :
>= 8 km
>= 3000ft
5 to 8 km
1000 to 3000 ft
1500m to 5 km
500 to 1000 ft
800 to 1500m
200 to 500 ft
< 800m
< 200 ft
Symbols :   Thunderstorms  Fog  Heavy snow  Heavy precipitations  Wind > 20 kt






- Airport Elevation : 1456 ft


KELO - Ely Municipal

CURRENT METAR :
  • 090215Z AUTO 00000KT 10SM VCTS SCT039 SCT090 19/19 A2979 RMK AO2 LTG DSNT ALQDS

EXPIRED METARs :
  • 090156Z AUTO 00000KT 10SM VCTS BKN039 19/19 A2978 RMK AO2 LTG DSNT ALQDS
  • 090135Z AUTO 00000KT 10SM TS BKN039 BKN048 20/20 A2980 RMK AO2 P0001 LTG DSNT ALQDS P0001
  • 090116Z AUTO 00000KT 10SM VCTS BKN048 BKN060 BKN110 21/21 A2979 RMK AO2 P0001 LTG DSNT ALQDS P0001
  • 090055Z AUTO 00000KT 10SM VCTS SCT043 BKN050 OVC100 21/21 A2979 RMK AO2 P0001 LTG DSNT ALQDS P0001
  • 090035Z AUTO 00000KT 10SM -VCTSRA 20/20 A2981 RMK AO2 P0001 LTG DSNT ALQDS P0001
  • 090020Z AUTO 00000KT TS A2980 RMK AO2 P0001 LTG DSNT ALQDS P0001
  • 082355Z AUTO 25004KT 2 1/2SM +TSRA SCT006 BKN019 OVC047 22/21 A2981 RMK AO2 P0050 LTG DSNT ALQDS P0050
  • 082335Z AUTO 23003KT 1 3/4SM +TSRA SCT006 BKN020 OVC048 23/22 A2980 RMK AO2 VIS 3/4V5 P0017 LTG DSNT ALQDS P0017

TAF N/A
KZMP FIR / North America



MET'MAP, your aeronautical weather chart ! - Copyright ORBIFLY December 2007 - Disclaimer

ORBIFLY MET'MAP TEAM :

Programming & Development : Alexandra Zaïnal
Concept & original design : Baudouin d'Aumeries
Assistance for programming : Marc-Olivier Méhu
Technical & hardware support : Manuel Goepfert

Contact : metmap@orbifly.com




SOURCES & CREDITS :

   NOAA       Earth
Advisory